Terminal Aerodrome Forecast
Issued by NWS Norman, OK

Home | Current Version | Previous Version | Text Only | Print | Product List | Glossary On
Versions: 1 2 3 4 5 6 7 8 9 10 11 12
000
FTUS44 KOUN 222320
TAFOKC
TAF
KOKC 222320Z 2300/2324 15007KT P6SM SCT150 SCT250
     FM231400 01010KT P6SM SCT040
     FM231900 02014KT P6SM BKN040 PROB30 2319/2324 5SM -TSRA
      BKN030CB=

USA.gov is the U.S. government's official web portal to all federal, state and local government web resources and services.